Hinckley, United Kingdom
Current Conditions -  °F | °C
As of 10:20 AM on Thursday 23 Oct 2014 (Local Time) from EGBE Reporting Station
Broken Clouds Broken Clouds  
Wind Chill: 13°   Ceiling: 1000
Heat Index: 13°   Visibility: 6mi
Dew Point: 11°   Wind: 13mph
Humidity: 88%   Direction: 210°SSW
Pressure: 30.06"   Gusts: NA
Location:  52.54°N, 1.37°W
Report Text: EGBE 230920Z 21011KT 9999 BKN010 13/11 Q1018
Loading
Personal Weather Stations






























Interactive Weather Map
Tropical Storm Tracking
New forecast layout! Learn more

10-Day Weather Forecast

Advertisements
Track Severe Weather on mobile